sensor_id;sensor_type;location;lat;lon;timestamp;temperature;humidity
23827;DHT22;12094;50.822;4.376;2022-10-17T00:01:17;16.50;99.90
23827;DHT22;12094;50.822;4.376;2022-10-17T00:03:47;16.50;99.90
23827;DHT22;12094;50.822;4.376;2022-10-17T00:06:15;16.40;99.90
23827;DHT22;12094;50.822;4.376;2022-10-17T00:08:43;16.50;99.90
23827;DHT22;12094;50.822;4.376;2022-10-17T00:11:21;16.50;99.90
23827;DHT22;12094;50.822;4.376;2022-10-17T00:13:53;16.50;99.90
23827;DHT22;12094;50.822;4.376;2022-10-17T00:16:29;16.50;99.90
23827;DHT22;12094;50.822;4.376;2022-10-17T00:18:59;16.60;99.90
23827;DHT22;12094;50.822;4.376;2022-10-17T00:21:35;16.70;99.90
23827;DHT22;12094;50.822;4.376;2022-10-17T00:24:02;16.70;99.90
23827;DHT22;12094;50.822;4.376;2022-10-17T00:26:32;16.70;99.90
23827;DHT22;12094;50.822;4.376;2022-10-17T00:29:03;16.80;99.90
23827;DHT22;12094;50.822;4.376;2022-10-17T00:31:31;16.90;99.90
23827;DHT22;12094;50.822;4.376;2022-10-17T00:33:58;16.90;99.90
23827;DHT22;12094;50.822;4.376;2022-10-17T00:36:30;16.90;99.90
23827;DHT22;12094;50.822;4.376;2022-10-17T00:38:58;17.00;99.90
23827;DHT22;12094;50.822;4.376;2022-10-17T00:41:29;17.00;99.90
23827;DHT22;12094;50.822;4.376;2022-10-17T00:46:29;17.10;99.90
23827;DHT22;12094;50.822;4.376;2022-10-17T00:49:03;17.20;99.90
23827;DHT22;12094;50.822;4.376;2022-10-17T00:51:44;17.20;99.90
23827;DHT22;12094;50.822;4.376;2022-10-17T00:54:15;17.20;99.90
23827;DHT22;12094;50.822;4.376;2022-10-17T00:56:45;17.30;99.90
23827;DHT22;12094;50.822;4.376;2022-10-17T00:59:15;17.30;99.90
23827;DHT22;12094;50.822;4.376;2022-10-17T01:01:53;17.30;99.90
23827;DHT22;12094;50.822;4.376;2022-10-17T01:04:24;17.30;99.90
23827;DHT22;12094;50.822;4.376;2022-10-17T01:06:51;17.30;99.90
23827;DHT22;12094;50.822;4.376;2022-10-17T01:09:19;17.30;99.90
23827;DHT22;12094;50.822;4.376;2022-10-17T01:12:10;17.30;99.90
23827;DHT22;12094;50.822;4.376;2022-10-17T01:17:29;17.30;99.90
23827;DHT22;12094;50.822;4.376;2022-10-17T01:31:47;17.20;99.90
23827;DHT22;12094;50.822;4.376;2022-10-17T01:34:23;17.30;99.90
23827;DHT22;12094;50.822;4.376;2022-10-17T01:37:12;17.30;99.90
23827;DHT22;12094;50.822;4.376;2022-10-17T01:39:50;17.20;99.90
23827;DHT22;12094;50.822;4.376;2022-10-17T01:42:23;17.20;99.90
23827;DHT22;12094;50.822;4.376;2022-10-17T01:44:58;17.20;99.90
23827;DHT22;12094;50.822;4.376;2022-10-17T01:47:30;17.20;99.90
23827;DHT22;12094;50.822;4.376;2022-10-17T01:50:06;17.20;99.90
23827;DHT22;12094;50.822;4.376;2022-10-17T01:52:44;17.20;99.90
23827;DHT22;12094;50.822;4.376;2022-10-17T01:55:32;17.30;99.90
23827;DHT22;12094;50.822;4.376;2022-10-17T01:58:14;17.30;99.90
23827;DHT22;12094;50.822;4.376;2022-10-17T02:00:44;17.30;99.90
23827;DHT22;12094;50.822;4.376;2022-10-17T02:03:17;17.40;99.90
23827;DHT22;12094;50.822;4.376;2022-10-17T02:05:45;17.30;99.90
23827;DHT22;12094;50.822;4.376;2022-10-17T02:08:26;17.30;99.90
23827;DHT22;12094;50.822;4.376;2022-10-17T02:11:01;17.30;99.90
23827;DHT22;12094;50.822;4.376;2022-10-17T02:25:08;17.50;99.90
23827;DHT22;12094;50.822;4.376;2022-10-17T02:27:43;17.50;99.90
23827;DHT22;12094;50.822;4.376;2022-10-17T02:30:34;17.50;99.90
23827;DHT22;12094;50.822;4.376;2022-10-17T02:33:51;17.50;99.90
23827;DHT22;12094;50.822;4.376;2022-10-17T02:36:18;17.40;99.90
23827;DHT22;12094;50.822;4.376;2022-10-17T02:38:46;17.50;99.90
23827;DHT22;12094;50.822;4.376;2022-10-17T02:41:18;17.50;99.90
23827;DHT22;12094;50.822;4.376;2022-10-17T02:43:49;17.50;99.90
23827;DHT22;12094;50.822;4.376;2022-10-17T02:46:21;17.50;99.90
23827;DHT22;12094;50.822;4.376;2022-10-17T02:48:54;17.50;99.90
23827;DHT22;12094;50.822;4.376;2022-10-17T02:54:28;17.70;99.90
23827;DHT22;12094;50.822;4.376;2022-10-17T02:57:24;17.70;99.90
23827;DHT22;12094;50.822;4.376;2022-10-17T02:59:54;17.70;99.90
23827;DHT22;12094;50.822;4.376;2022-10-17T03:02:24;17.70;99.90
23827;DHT22;12094;50.822;4.376;2022-10-17T03:04:53;17.80;99.90
23827;DHT22;12094;50.822;4.376;2022-10-17T03:07:20;17.80;99.90
23827;DHT22;12094;50.822;4.376;2022-10-17T03:09:48;17.90;99.90
23827;DHT22;12094;50.822;4.376;2022-10-17T03:12:15;17.80;99.90
23827;DHT22;12094;50.822;4.376;2022-10-17T03:14:41;17.80;99.90
23827;DHT22;12094;50.822;4.376;2022-10-17T03:17:12;17.80;99.90
23827;DHT22;12094;50.822;4.376;2022-10-17T03:19:41;17.80;99.90
23827;DHT22;12094;50.822;4.376;2022-10-17T03:22:35;17.80;99.90
23827;DHT22;12094;50.822;4.376;2022-10-17T03:25:03;17.80;99.90
23827;DHT22;12094;50.822;4.376;2022-10-17T03:27:33;17.80;99.90
23827;DHT22;12094;50.822;4.376;2022-10-17T03:30:04;17.80;99.90
23827;DHT22;12094;50.822;4.376;2022-10-17T03:32:33;17.80;99.90
23827;DHT22;12094;50.822;4.376;2022-10-17T03:35:03;17.80;99.90
23827;DHT22;12094;50.822;4.376;2022-10-17T03:37:30;17.80;99.90
23827;DHT22;12094;50.822;4.376;2022-10-17T03:39:58;17.80;99.90
23827;DHT22;12094;50.822;4.376;2022-10-17T03:42:26;17.80;99.90
23827;DHT22;12094;50.822;4.376;2022-10-17T03:44:54;17.80;99.90
23827;DHT22;12094;50.822;4.376;2022-10-17T03:47:22;17.80;99.90
23827;DHT22;12094;50.822;4.376;2022-10-17T03:49:50;17.80;99.90
23827;DHT22;12094;50.822;4.376;2022-10-17T03:52:21;17.80;99.90
23827;DHT22;12094;50.822;4.376;2022-10-17T03:54:52;17.80;99.90
23827;DHT22;12094;50.822;4.376;2022-10-17T03:57:19;17.70;99.90
23827;DHT22;12094;50.822;4.376;2022-10-17T03:59:46;17.80;99.90
23827;DHT22;12094;50.822;4.376;2022-10-17T04:02:17;17.70;99.90
23827;DHT22;12094;50.822;4.376;2022-10-17T04:04:44;17.70;99.90
23827;DHT22;12094;50.822;4.376;2022-10-17T04:07:11;17.60;99.90
23827;DHT22;12094;50.822;4.376;2022-10-17T04:09:43;17.70;99.90
23827;DHT22;12094;50.822;4.376;2022-10-17T04:12:16;17.60;99.90
23827;DHT22;12094;50.822;4.376;2022-10-17T04:14:43;17.50;99.90
23827;DHT22;12094;50.822;4.376;2022-10-17T04:17:13;17.50;99.90
23827;DHT22;12094;50.822;4.376;2022-10-17T04:19:40;17.50;99.90
23827;DHT22;12094;50.822;4.376;2022-10-17T04:22:07;17.50;99.90
23827;DHT22;12094;50.822;4.376;2022-10-17T04:24:38;17.50;99.90
23827;DHT22;12094;50.822;4.376;2022-10-17T04:27:08;17.50;99.90
23827;DHT22;12094;50.822;4.376;2022-10-17T04:29:40;17.50;99.90
23827;DHT22;12094;50.822;4.376;2022-10-17T04:32:15;17.40;99.90
23827;DHT22;12094;50.822;4.376;2022-10-17T04:35:01;17.40;99.90
23827;DHT22;12094;50.822;4.376;2022-10-17T04:37:29;17.50;99.90
23827;DHT22;12094;50.822;4.376;2022-10-17T04:39:58;17.50;99.90
23827;DHT22;12094;50.822;4.376;2022-10-17T04:42:32;17.40;99.90
23827;DHT22;12094;50.822;4.376;2022-10-17T04:45:00;17.40;99.90
23827;DHT22;12094;50.822;4.376;2022-10-17T04:47:29;17.40;99.90
23827;DHT22;12094;50.822;4.376;2022-10-17T04:49:57;17.40;99.90
23827;DHT22;12094;50.822;4.376;2022-10-17T04:52:25;17.40;99.90
23827;DHT22;12094;50.822;4.376;2022-10-17T04:54:53;17.40;99.90
23827;DHT22;12094;50.822;4.376;2022-10-17T04:57:20;17.40;99.90
23827;DHT22;12094;50.822;4.376;2022-10-17T04:59:55;17.40;99.90
23827;DHT22;12094;50.822;4.376;2022-10-17T05:02:33;17.40;99.90
23827;DHT22;12094;50.822;4.376;2022-10-17T05:05:05;17.40;99.90
23827;DHT22;12094;50.822;4.376;2022-10-17T05:07:39;17.50;99.90
23827;DHT22;12094;50.822;4.376;2022-10-17T05:10:11;17.40;99.90
23827;DHT22;12094;50.822;4.376;2022-10-17T05:12:43;17.40;99.90
23827;DHT22;12094;50.822;4.376;2022-10-17T05:15:11;17.40;99.90
23827;DHT22;12094;50.822;4.376;2022-10-17T05:17:39;17.40;99.90
23827;DHT22;12094;50.822;4.376;2022-10-17T05:20:10;17.40;99.90
23827;DHT22;12094;50.822;4.376;2022-10-17T05:22:39;17.40;99.90
23827;DHT22;12094;50.822;4.376;2022-10-17T05:25:09;17.40;99.90
23827;DHT22;12094;50.822;4.376;2022-10-17T05:27:36;17.50;99.90
23827;DHT22;12094;50.822;4.376;2022-10-17T05:30:05;17.50;99.90
23827;DHT22;12094;50.822;4.376;2022-10-17T05:32:35;17.50;99.90
23827;DHT22;12094;50.822;4.376;2022-10-17T05:35:03;17.60;99.90
23827;DHT22;12094;50.822;4.376;2022-10-17T05:37:32;17.60;99.90
23827;DHT22;12094;50.822;4.376;2022-10-17T05:40:01;17.70;99.90
23827;DHT22;12094;50.822;4.376;2022-10-17T05:42:30;17.60;99.90
23827;DHT22;12094;50.822;4.376;2022-10-17T05:44:57;17.70;99.90
23827;DHT22;12094;50.822;4.376;2022-10-17T05:47:26;17.60;99.90
23827;DHT22;12094;50.822;4.376;2022-10-17T05:49:54;17.60;99.90
23827;DHT22;12094;50.822;4.376;2022-10-17T05:52:28;17.60;99.90
23827;DHT22;12094;50.822;4.376;2022-10-17T05:55:08;17.70;99.90
23827;DHT22;12094;50.822;4.376;2022-10-17T05:57:36;17.60;99.90
23827;DHT22;12094;50.822;4.376;2022-10-17T06:00:07;17.60;99.90
23827;DHT22;12094;50.822;4.376;2022-10-17T06:02:41;17.60;99.90
23827;DHT22;12094;50.822;4.376;2022-10-17T06:05:10;17.60;99.90
23827;DHT22;12094;50.822;4.376;2022-10-17T06:07:41;17.60;99.90
23827;DHT22;12094;50.822;4.376;2022-10-17T06:10:11;17.60;99.90
23827;DHT22;12094;50.822;4.376;2022-10-17T06:12:43;17.70;99.90
23827;DHT22;12094;50.822;4.376;2022-10-17T06:15:11;17.70;99.90
23827;DHT22;12094;50.822;4.376;2022-10-17T06:17:41;17.80;99.90
23827;DHT22;12094;50.822;4.376;2022-10-17T06:20:08;17.70;99.90
23827;DHT22;12094;50.822;4.376;2022-10-17T06:22:36;17.70;99.90
23827;DHT22;12094;50.822;4.376;2022-10-17T06:25:07;17.80;99.90
23827;DHT22;12094;50.822;4.376;2022-10-17T06:27:34;17.70;99.90
23827;DHT22;12094;50.822;4.376;2022-10-17T06:30:03;17.70;99.90
23827;DHT22;12094;50.822;4.376;2022-10-17T06:32:31;17.60;99.90
23827;DHT22;12094;50.822;4.376;2022-10-17T06:35:00;17.70;99.90
23827;DHT22;12094;50.822;4.376;2022-10-17T06:37:30;17.60;99.90
23827;DHT22;12094;50.822;4.376;2022-10-17T06:40:05;17.70;99.90
23827;DHT22;12094;50.822;4.376;2022-10-17T06:42:37;17.70;99.90
23827;DHT22;12094;50.822;4.376;2022-10-17T06:45:24;17.70;99.90
23827;DHT22;12094;50.822;4.376;2022-10-17T06:48:06;17.80;99.90
23827;DHT22;12094;50.822;4.376;2022-10-17T06:50:49;17.80;99.90
23827;DHT22;12094;50.822;4.376;2022-10-17T06:53:22;17.90;99.90
23827;DHT22;12094;50.822;4.376;2022-10-17T06:56:06;18.00;99.90
23827;DHT22;12094;50.822;4.376;2022-10-17T06:58:44;18.10;99.90
23827;DHT22;12094;50.822;4.376;2022-10-17T07:01:32;18.20;99.90
23827;DHT22;12094;50.822;4.376;2022-10-17T07:04:02;18.20;99.90
23827;DHT22;12094;50.822;4.376;2022-10-17T07:06:30;18.30;99.90
23827;DHT22;12094;50.822;4.376;2022-10-17T07:09:03;18.30;99.90
23827;DHT22;12094;50.822;4.376;2022-10-17T07:11:35;18.20;99.90
23827;DHT22;12094;50.822;4.376;2022-10-17T07:14:02;18.20;99.90
23827;DHT22;12094;50.822;4.376;2022-10-17T07:16:29;18.30;99.90
23827;DHT22;12094;50.822;4.376;2022-10-17T07:19:13;18.20;99.90
23827;DHT22;12094;50.822;4.376;2022-10-17T07:21:44;18.20;99.90
23827;DHT22;12094;50.822;4.376;2022-10-17T07:24:11;18.30;99.90
23827;DHT22;12094;50.822;4.376;2022-10-17T07:26:41;18.30;99.90
23827;DHT22;12094;50.822;4.376;2022-10-17T07:29:09;18.30;99.90
23827;DHT22;12094;50.822;4.376;2022-10-17T07:31:50;18.30;99.90
23827;DHT22;12094;50.822;4.376;2022-10-17T07:34:18;18.30;99.90
23827;DHT22;12094;50.822;4.376;2022-10-17T07:36:45;18.20;99.90
23827;DHT22;12094;50.822;4.376;2022-10-17T07:39:14;18.10;99.90
23827;DHT22;12094;50.822;4.376;2022-10-17T07:41:41;18.00;99.90
23827;DHT22;12094;50.822;4.376;2022-10-17T07:44:09;18.10;99.90
23827;DHT22;12094;50.822;4.376;2022-10-17T07:46:43;18.00;99.90
23827;DHT22;12094;50.822;4.376;2022-10-17T07:49:09;17.90;99.90
23827;DHT22;12094;50.822;4.376;2022-10-17T07:51:39;18.10;99.90
23827;DHT22;12094;50.822;4.376;2022-10-17T07:54:06;18.10;99.90
23827;DHT22;12094;50.822;4.376;2022-10-17T07:56:32;18.10;99.90
23827;DHT22;12094;50.822;4.376;2022-10-17T07:58:59;18.00;99.90
23827;DHT22;12094;50.822;4.376;2022-10-17T08:01:32;17.80;99.90
23827;DHT22;12094;50.822;4.376;2022-10-17T08:03:59;17.60;99.90
23827;DHT22;12094;50.822;4.376;2022-10-17T08:06:27;17.60;99.90
23827;DHT22;12094;50.822;4.376;2022-10-17T08:08:54;17.50;99.90
23827;DHT22;12094;50.822;4.376;2022-10-17T08:11:21;17.50;99.90
23827;DHT22;12094;50.822;4.376;2022-10-17T08:13:48;17.40;99.90
23827;DHT22;12094;50.822;4.376;2022-10-17T08:16:15;17.40;99.90
23827;DHT22;12094;50.822;4.376;2022-10-17T08:18:42;17.30;99.90
23827;DHT22;12094;50.822;4.376;2022-10-17T08:21:10;17.30;99.90
23827;DHT22;12094;50.822;4.376;2022-10-17T08:23:38;17.30;99.90
23827;DHT22;12094;50.822;4.376;2022-10-17T08:26:06;17.30;99.90
23827;DHT22;12094;50.822;4.376;2022-10-17T08:28:37;17.30;99.90
23827;DHT22;12094;50.822;4.376;2022-10-17T08:31:25;17.30;99.90
23827;DHT22;12094;50.822;4.376;2022-10-17T08:33:52;17.40;99.90
23827;DHT22;12094;50.822;4.376;2022-10-17T08:36:19;17.50;99.90
23827;DHT22;12094;50.822;4.376;2022-10-17T08:38:47;17.70;99.90
23827;DHT22;12094;50.822;4.376;2022-10-17T08:44:38;17.80;99.90
23827;DHT22;12094;50.822;4.376;2022-10-17T08:47:13;17.80;99.90
23827;DHT22;12094;50.822;4.376;2022-10-17T08:50:10;17.80;99.90
23827;DHT22;12094;50.822;4.376;2022-10-17T08:52:48;17.80;99.90
23827;DHT22;12094;50.822;4.376;2022-10-17T08:55:37;17.80;99.90
23827;DHT22;12094;50.822;4.376;2022-10-17T09:04:10;17.80;99.90
23827;DHT22;12094;50.822;4.376;2022-10-17T09:10:20;17.70;99.90
23827;DHT22;12094;50.822;4.376;2022-10-17T09:12:19;17.60;99.90
23827;DHT22;12094;50.822;4.376;2022-10-17T09:18:02;17.60;99.90
23827;DHT22;12094;50.822;4.376;2022-10-17T09:20:35;17.60;99.90
23827;DHT22;12094;50.822;4.376;2022-10-17T09:23:21;17.70;99.90
23827;DHT22;12094;50.822;4.376;2022-10-17T09:25:53;17.70;99.90
23827;DHT22;12094;50.822;4.376;2022-10-17T09:28:34;17.70;99.90
23827;DHT22;12094;50.822;4.376;2022-10-17T09:31:23;17.60;99.90
23827;DHT22;12094;50.822;4.376;2022-10-17T09:33:53;17.60;99.90
23827;DHT22;12094;50.822;4.376;2022-10-17T09:36:28;17.70;99.90
23827;DHT22;12094;50.822;4.376;2022-10-17T09:39:19;17.70;99.90
23827;DHT22;12094;50.822;4.376;2022-10-17T09:41:53;17.70;99.90
23827;DHT22;12094;50.822;4.376;2022-10-17T09:44:34;17.80;99.90
23827;DHT22;12094;50.822;4.376;2022-10-17T09:49:39;17.80;99.90
23827;DHT22;12094;50.822;4.376;2022-10-17T09:52:29;17.90;99.90
23827;DHT22;12094;50.822;4.376;2022-10-17T09:57:59;17.90;99.90
23827;DHT22;12094;50.822;4.376;2022-10-17T10:05:35;17.90;99.90
23827;DHT22;12094;50.822;4.376;2022-10-17T10:08:14;18.00;99.90
23827;DHT22;12094;50.822;4.376;2022-10-17T10:10:45;18.00;99.90
23827;DHT22;12094;50.822;4.376;2022-10-17T10:15:49;18.20;99.90
23827;DHT22;12094;50.822;4.376;2022-10-17T10:23:39;18.40;99.90
23827;DHT22;12094;50.822;4.376;2022-10-17T10:26:27;18.30;99.90
23827;DHT22;12094;50.822;4.376;2022-10-17T10:31:52;17.90;99.90
23827;DHT22;12094;50.822;4.376;2022-10-17T10:34:29;17.90;99.90
23827;DHT22;12094;50.822;4.376;2022-10-17T10:37:14;17.90;99.90
23827;DHT22;12094;50.822;4.376;2022-10-17T10:40:01;17.90;99.90
23827;DHT22;12094;50.822;4.376;2022-10-17T10:42:34;17.90;99.90
23827;DHT22;12094;50.822;4.376;2022-10-17T10:45:24;17.90;99.90
23827;DHT22;12094;50.822;4.376;2022-10-17T10:48:23;17.90;99.90
23827;DHT22;12094;50.822;4.376;2022-10-17T10:56:23;17.80;99.90
23827;DHT22;12094;50.822;4.376;2022-10-17T11:07:24;17.90;99.90
23827;DHT22;12094;50.822;4.376;2022-10-17T11:10:13;17.80;99.90
23827;DHT22;12094;50.822;4.376;2022-10-17T11:15:41;17.80;99.90
23827;DHT22;12094;50.822;4.376;2022-10-17T11:20:54;17.90;99.90
23827;DHT22;12094;50.822;4.376;2022-10-17T11:23:36;18.00;99.90
23827;DHT22;12094;50.822;4.376;2022-10-17T11:26:11;18.00;99.90
23827;DHT22;12094;50.822;4.376;2022-10-17T11:28:39;18.20;99.90
23827;DHT22;12094;50.822;4.376;2022-10-17T11:31:09;18.10;99.90
23827;DHT22;12094;50.822;4.376;2022-10-17T11:34:05;18.10;99.90
23827;DHT22;12094;50.822;4.376;2022-10-17T11:36:41;18.20;99.90
23827;DHT22;12094;50.822;4.376;2022-10-17T11:39:15;18.20;99.90
23827;DHT22;12094;50.822;4.376;2022-10-17T11:42:11;18.20;99.90
23827;DHT22;12094;50.822;4.376;2022-10-17T11:44:38;18.20;99.90
23827;DHT22;12094;50.822;4.376;2022-10-17T11:47:42;18.30;99.90
23827;DHT22;12094;50.822;4.376;2022-10-17T11:50:32;18.30;99.90
23827;DHT22;12094;50.822;4.376;2022-10-17T11:53:26;18.40;99.90
23827;DHT22;12094;50.822;4.376;2022-10-17T11:55:57;18.50;99.90
23827;DHT22;12094;50.822;4.376;2022-10-17T11:58:42;18.60;99.90
23827;DHT22;12094;50.822;4.376;2022-10-17T12:01:23;18.50;99.90
23827;DHT22;12094;50.822;4.376;2022-10-17T12:09:26;18.40;99.90
23827;DHT22;12094;50.822;4.376;2022-10-17T12:11:59;18.40;99.90
23827;DHT22;12094;50.822;4.376;2022-10-17T12:14:37;18.30;99.90
23827;DHT22;12094;50.822;4.376;2022-10-17T12:19:48;18.10;99.90
23827;DHT22;12094;50.822;4.376;2022-10-17T12:22:25;18.10;99.90
23827;DHT22;12094;50.822;4.376;2022-10-17T12:25:00;18.30;99.90
23827;DHT22;12094;50.822;4.376;2022-10-17T12:27:38;18.20;99.90
23827;DHT22;12094;50.822;4.376;2022-10-17T12:35:35;18.40;99.90
23827;DHT22;12094;50.822;4.376;2022-10-17T12:38:21;18.40;99.90
23827;DHT22;12094;50.822;4.376;2022-10-17T12:40:55;18.30;99.90
23827;DHT22;12094;50.822;4.376;2022-10-17T12:43:48;18.40;99.90
23827;DHT22;12094;50.822;4.376;2022-10-17T12:46:48;18.40;99.90
23827;DHT22;12094;50.822;4.376;2022-10-17T12:49:42;18.50;99.90
23827;DHT22;12094;50.822;4.376;2022-10-17T12:57:56;18.60;99.90
23827;DHT22;12094;50.822;4.376;2022-10-17T13:03:20;18.70;99.90
23827;DHT22;12094;50.822;4.376;2022-10-17T13:05:54;18.70;99.90
23827;DHT22;12094;50.822;4.376;2022-10-17T13:08:43;18.60;99.90
23827;DHT22;12094;50.822;4.376;2022-10-17T13:11:10;18.60;99.90
23827;DHT22;12094;50.822;4.376;2022-10-17T13:13:45;18.60;99.90
23827;DHT22;12094;50.822;4.376;2022-10-17T13:16:38;18.70;99.90
23827;DHT22;12094;50.822;4.376;2022-10-17T13:19:16;18.90;99.90
23827;DHT22;12094;50.822;4.376;2022-10-17T13:22:20;19.00;99.90
23827;DHT22;12094;50.822;4.376;2022-10-17T13:24:49;19.00;99.90
23827;DHT22;12094;50.822;4.376;2022-10-17T13:29:52;18.80;99.90
23827;DHT22;12094;50.822;4.376;2022-10-17T13:32:20;18.80;99.90
23827;DHT22;12094;50.822;4.376;2022-10-17T13:35:09;18.80;99.90
23827;DHT22;12094;50.822;4.376;2022-10-17T13:37:41;18.80;99.90
23827;DHT22;12094;50.822;4.376;2022-10-17T13:40:22;18.70;99.90
23827;DHT22;12094;50.822;4.376;2022-10-17T13:43:16;18.70;99.90
23827;DHT22;12094;50.822;4.376;2022-10-17T13:45:52;18.70;99.90
23827;DHT22;12094;50.822;4.376;2022-10-17T13:48:23;18.80;99.90
23827;DHT22;12094;50.822;4.376;2022-10-17T13:50:58;18.70;99.90
23827;DHT22;12094;50.822;4.376;2022-10-17T13:53:31;18.60;99.90
23827;DHT22;12094;50.822;4.376;2022-10-17T13:56:02;18.70;99.90
23827;DHT22;12094;50.822;4.376;2022-10-17T13:58:52;18.70;99.90
23827;DHT22;12094;50.822;4.376;2022-10-17T14:01:24;18.80;99.90
23827;DHT22;12094;50.822;4.376;2022-10-17T14:03:54;18.80;99.90
23827;DHT22;12094;50.822;4.376;2022-10-17T14:06:42;18.70;99.90
23827;DHT22;12094;50.822;4.376;2022-10-17T14:09:26;18.60;99.90
23827;DHT22;12094;50.822;4.376;2022-10-17T14:12:01;18.70;99.90
23827;DHT22;12094;50.822;4.376;2022-10-17T14:14:30;18.70;99.90
23827;DHT22;12094;50.822;4.376;2022-10-17T14:17:25;18.70;99.90
23827;DHT22;12094;50.822;4.376;2022-10-17T14:19:59;18.90;99.90
23827;DHT22;12094;50.822;4.376;2022-10-17T14:22:50;18.90;99.90
23827;DHT22;12094;50.822;4.376;2022-10-17T14:25:39;18.80;99.90
23827;DHT22;12094;50.822;4.376;2022-10-17T14:30:48;18.90;99.90
23827;DHT22;12094;50.822;4.376;2022-10-17T14:33:29;18.90;99.90
23827;DHT22;12094;50.822;4.376;2022-10-17T14:35:59;18.90;99.90
23827;DHT22;12094;50.822;4.376;2022-10-17T14:38:28;18.90;99.90
23827;DHT22;12094;50.822;4.376;2022-10-17T14:41:00;18.80;99.90
23827;DHT22;12094;50.822;4.376;2022-10-17T14:44:00;18.80;99.90
23827;DHT22;12094;50.822;4.376;2022-10-17T14:46:28;18.90;99.90
23827;DHT22;12094;50.822;4.376;2022-10-17T14:49:06;19.00;99.90
23827;DHT22;12094;50.822;4.376;2022-10-17T14:51:34;19.10;99.90
23827;DHT22;12094;50.822;4.376;2022-10-17T14:54:27;19.20;99.90
23827;DHT22;12094;50.822;4.376;2022-10-17T14:56:58;19.30;99.90
23827;DHT22;12094;50.822;4.376;2022-10-17T14:59:25;19.20;99.90
23827;DHT22;12094;50.822;4.376;2022-10-17T15:02:13;19.10;99.90
23827;DHT22;12094;50.822;4.376;2022-10-17T15:04:41;19.00;99.90
23827;DHT22;12094;50.822;4.376;2022-10-17T15:07:15;19.00;99.90
23827;DHT22;12094;50.822;4.376;2022-10-17T15:09:52;19.00;99.90
23827;DHT22;12094;50.822;4.376;2022-10-17T15:12:22;19.00;99.90
23827;DHT22;12094;50.822;4.376;2022-10-17T15:14:52;19.10;99.90
23827;DHT22;12094;50.822;4.376;2022-10-17T15:17:31;19.10;99.90
23827;DHT22;12094;50.822;4.376;2022-10-17T15:19:58;19.10;99.90
23827;DHT22;12094;50.822;4.376;2022-10-17T15:22:25;19.10;99.90
23827;DHT22;12094;50.822;4.376;2022-10-17T15:24:53;19.00;99.90
23827;DHT22;12094;50.822;4.376;2022-10-17T15:27:22;18.90;99.90
23827;DHT22;12094;50.822;4.376;2022-10-17T15:29:49;18.90;99.90
23827;DHT22;12094;50.822;4.376;2022-10-17T15:32:18;18.90;99.90
23827;DHT22;12094;50.822;4.376;2022-10-17T15:34:45;18.90;99.90
23827;DHT22;12094;50.822;4.376;2022-10-17T15:37:18;18.80;99.90
23827;DHT22;12094;50.822;4.376;2022-10-17T15:39:52;18.70;99.90
23827;DHT22;12094;50.822;4.376;2022-10-17T15:42:25;18.60;99.90
23827;DHT22;12094;50.822;4.376;2022-10-17T15:44:54;18.50;99.90
23827;DHT22;12094;50.822;4.376;2022-10-17T15:47:29;18.50;99.90
23827;DHT22;12094;50.822;4.376;2022-10-17T15:50:01;18.50;99.90
23827;DHT22;12094;50.822;4.376;2022-10-17T15:52:28;18.50;99.90
23827;DHT22;12094;50.822;4.376;2022-10-17T15:54:55;18.50;99.90
23827;DHT22;12094;50.822;4.376;2022-10-17T15:57:33;18.40;99.90
23827;DHT22;12094;50.822;4.376;2022-10-17T16:00:12;18.50;99.90
23827;DHT22;12094;50.822;4.376;2022-10-17T16:02:42;18.50;99.90
23827;DHT22;12094;50.822;4.376;2022-10-17T16:05:20;18.50;99.90
23827;DHT22;12094;50.822;4.376;2022-10-17T16:07:49;18.40;99.90
23827;DHT22;12094;50.822;4.376;2022-10-17T16:10:18;18.40;99.90
23827;DHT22;12094;50.822;4.376;2022-10-17T16:12:45;18.30;99.90
23827;DHT22;12094;50.822;4.376;2022-10-17T16:15:21;18.40;99.90
23827;DHT22;12094;50.822;4.376;2022-10-17T16:17:49;18.30;99.90
23827;DHT22;12094;50.822;4.376;2022-10-17T16:20:16;18.30;99.90
23827;DHT22;12094;50.822;4.376;2022-10-17T16:22:44;18.30;99.90
23827;DHT22;12094;50.822;4.376;2022-10-17T16:25:23;18.30;99.90
23827;DHT22;12094;50.822;4.376;2022-10-17T16:27:53;18.30;99.90
23827;DHT22;12094;50.822;4.376;2022-10-17T16:30:22;18.20;99.90
23827;DHT22;12094;50.822;4.376;2022-10-17T16:32:49;18.20;99.90
23827;DHT22;12094;50.822;4.376;2022-10-17T16:35:20;18.20;99.90
23827;DHT22;12094;50.822;4.376;2022-10-17T16:37:49;18.00;99.90
23827;DHT22;12094;50.822;4.376;2022-10-17T16:40:16;18.00;99.90
23827;DHT22;12094;50.822;4.376;2022-10-17T16:42:43;18.00;99.90
23827;DHT22;12094;50.822;4.376;2022-10-17T16:45:20;17.90;99.90
23827;DHT22;12094;50.822;4.376;2022-10-17T16:47:47;17.90;99.90
23827;DHT22;12094;50.822;4.376;2022-10-17T16:50:15;17.90;99.90
23827;DHT22;12094;50.822;4.376;2022-10-17T16:52:43;17.80;99.90
23827;DHT22;12094;50.822;4.376;2022-10-17T16:55:10;17.80;99.90
23827;DHT22;12094;50.822;4.376;2022-10-17T16:57:37;17.90;99.90
23827;DHT22;12094;50.822;4.376;2022-10-17T17:00:06;17.90;99.90
23827;DHT22;12094;50.822;4.376;2022-10-17T17:02:33;17.90;99.90
23827;DHT22;12094;50.822;4.376;2022-10-17T17:05:01;17.90;99.90
23827;DHT22;12094;50.822;4.376;2022-10-17T17:07:30;17.90;99.90
23827;DHT22;12094;50.822;4.376;2022-10-17T17:09:59;17.90;99.90
23827;DHT22;12094;50.822;4.376;2022-10-17T17:12:26;17.90;99.90
23827;DHT22;12094;50.822;4.376;2022-10-17T17:14:53;17.80;99.90
23827;DHT22;12094;50.822;4.376;2022-10-17T17:17:21;17.80;99.90
23827;DHT22;12094;50.822;4.376;2022-10-17T17:20:08;17.70;99.90
23827;DHT22;12094;50.822;4.376;2022-10-17T17:22:36;17.70;99.90
23827;DHT22;12094;50.822;4.376;2022-10-17T17:25:03;17.70;99.90
23827;DHT22;12094;50.822;4.376;2022-10-17T17:27:31;17.60;99.90
23827;DHT22;12094;50.822;4.376;2022-10-17T17:29:59;17.60;99.90
23827;DHT22;12094;50.822;4.376;2022-10-17T17:32:27;17.60;99.90
23827;DHT22;12094;50.822;4.376;2022-10-17T17:34:55;17.60;99.90
23827;DHT22;12094;50.822;4.376;2022-10-17T17:37:23;17.50;99.90
23827;DHT22;12094;50.822;4.376;2022-10-17T17:39:50;17.50;99.90
23827;DHT22;12094;50.822;4.376;2022-10-17T17:42:19;17.50;99.90
23827;DHT22;12094;50.822;4.376;2022-10-17T17:44:48;17.40;99.90
23827;DHT22;12094;50.822;4.376;2022-10-17T17:47:15;17.40;99.90
23827;DHT22;12094;50.822;4.376;2022-10-17T17:49:42;17.30;99.90
23827;DHT22;12094;50.822;4.376;2022-10-17T17:52:09;17.30;99.90
23827;DHT22;12094;50.822;4.376;2022-10-17T17:54:43;17.30;99.90
23827;DHT22;12094;50.822;4.376;2022-10-17T17:57:22;17.20;99.90
23827;DHT22;12094;50.822;4.376;2022-10-17T17:59:53;17.30;99.90
23827;DHT22;12094;50.822;4.376;2022-10-17T18:02:21;17.30;99.90
23827;DHT22;12094;50.822;4.376;2022-10-17T18:04:49;17.30;99.90